createdAt,value
2024-01-29T00:00:18.265Z,1.90
2024-01-29T00:01:18.587Z,1.93
2024-01-29T00:02:18.454Z,1.92
2024-01-29T00:03:18.587Z,1.94
2024-01-29T00:04:18.769Z,1.92
2024-01-29T00:05:18.730Z,1.92
2024-01-29T00:06:18.994Z,1.89
2024-01-29T00:07:19.048Z,1.89
2024-01-29T00:08:19.046Z,1.87
2024-01-29T00:09:19.442Z,1.85
2024-01-29T00:10:19.228Z,1.86
2024-01-29T00:11:19.569Z,1.85
2024-01-29T00:12:19.461Z,1.81
2024-01-29T00:13:19.514Z,1.82
2024-01-29T00:14:19.636Z,1.82
2024-01-29T00:15:19.760Z,1.85
2024-01-29T00:16:19.837Z,1.85
2024-01-29T00:17:19.982Z,1.86
2024-01-29T00:18:20.178Z,1.85
2024-01-29T00:19:20.148Z,1.85
2024-01-29T00:20:20.224Z,1.82
2024-01-29T00:21:20.326Z,1.81
2024-01-29T00:22:20.386Z,1.82
2024-01-29T00:23:20.489Z,1.85
2024-01-29T00:24:20.720Z,1.81
2024-01-29T00:25:20.664Z,1.85
2024-01-29T00:26:20.770Z,1.81
2024-01-29T00:27:20.901Z,1.78
2024-01-29T00:28:20.954Z,1.76
2024-01-29T00:29:21.061Z,1.75
2024-01-29T00:30:21.219Z,1.74
2024-01-29T00:31:22.038Z,1.74
2024-01-29T00:32:21.345Z,1.72
2024-01-29T00:33:21.574Z,1.72
2024-01-29T00:34:21.651Z,1.71
2024-01-29T00:35:21.605Z,1.71
2024-01-29T00:36:21.728Z,1.72
2024-01-29T00:37:21.798Z,1.71
2024-01-29T00:38:21.905Z,1.72
2024-01-29T00:39:22.055Z,1.71
2024-01-29T00:40:22.081Z,1.69
2024-01-29T00:41:22.179Z,1.71
2024-01-29T00:42:22.319Z,1.71
2024-01-29T00:43:22.362Z,1.68
2024-01-29T00:44:22.511Z,1.69
2024-01-29T00:45:22.642Z,1.68
2024-01-29T00:46:22.668Z,1.67
2024-01-29T00:47:22.763Z,1.65
2024-01-29T00:48:22.982Z,1.63
2024-01-29T00:49:23.158Z,1.63
2024-01-29T00:50:23.068Z,1.61
2024-01-29T00:51:23.183Z,1.61
2024-01-29T00:52:23.275Z,1.63
2024-01-29T00:53:23.348Z,1.61
2024-01-29T00:54:23.539Z,1.60
2024-01-29T00:55:23.547Z,1.58
2024-01-29T00:56:23.651Z,1.60
2024-01-29T00:57:23.799Z,1.60
2024-01-29T00:58:23.830Z,1.63
2024-01-29T00:59:23.939Z,1.61
2024-01-29T01:00:24.096Z,1.61
2024-01-29T01:01:24.221Z,1.65
2024-01-29T01:02:24.265Z,1.63
2024-01-29T01:03:24.401Z,1.65
2024-01-29T01:04:24.586Z,1.65
2024-01-29T01:05:24.588Z,1.65
2024-01-29T01:06:24.647Z,1.67
2024-01-29T01:07:24.719Z,1.65
2024-01-29T01:08:24.829Z,1.63
2024-01-29T01:09:24.961Z,1.63
2024-01-29T01:10:25.044Z,1.63
2024-01-29T01:11:25.127Z,1.60
2024-01-29T01:12:25.280Z,1.58
2024-01-29T01:13:25.359Z,1.56
2024-01-29T01:14:25.463Z,1.53
2024-01-29T01:15:25.623Z,1.50
2024-01-29T01:16:25.665Z,1.47
2024-01-29T01:17:25.772Z,1.49
2024-01-29T01:18:25.936Z,1.42
2024-01-29T01:19:26.087Z,1.42
2024-01-29T01:20:26.058Z,1.40
2024-01-29T01:21:26.192Z,1.39
2024-01-29T01:22:26.252Z,1.42
2024-01-29T01:23:26.353Z,1.38
2024-01-29T01:24:26.516Z,1.36
2024-01-29T01:25:26.554Z,1.38
2024-01-29T01:26:26.686Z,1.36
2024-01-29T01:27:26.810Z,1.35
2024-01-29T01:28:26.973Z,1.33
2024-01-29T01:29:27.005Z,1.32
2024-01-29T01:30:27.148Z,1.33
2024-01-29T01:31:27.214Z,1.33
2024-01-29T01:32:27.459Z,1.33
2024-01-29T01:33:27.499Z,1.35
2024-01-29T01:34:27.817Z,1.36
2024-01-29T01:35:27.617Z,1.36
2024-01-29T01:36:27.750Z,1.35
2024-01-29T01:37:27.820Z,1.35
2024-01-29T01:38:27.936Z,1.32
2024-01-29T01:39:28.079Z,1.32
2024-01-29T01:40:28.142Z,1.32
2024-01-29T01:41:28.234Z,1.29
2024-01-29T01:42:28.401Z,1.28
2024-01-29T01:43:28.450Z,1.28
2024-01-29T01:44:28.590Z,1.25
2024-01-29T01:45:28.723Z,1.24
2024-01-29T01:46:28.796Z,1.28
2024-01-29T01:47:28.916Z,1.25
2024-01-29T01:48:29.026Z,1.25
2024-01-29T01:49:29.177Z,1.25
2024-01-29T01:50:29.206Z,1.24
2024-01-29T01:51:29.307Z,1.22
2024-01-29T01:52:29.407Z,1.21
2024-01-29T01:53:29.481Z,1.20
2024-01-29T01:54:29.659Z,1.18
2024-01-29T01:55:29.720Z,1.17
2024-01-29T01:56:29.824Z,1.20
2024-01-29T01:57:29.951Z,1.20
2024-01-29T01:58:30.077Z,1.21
2024-01-29T01:59:30.118Z,1.21
2024-01-29T02:02:28.237Z,1.18
2024-01-29T02:03:29.322Z,1.18
2024-01-29T02:04:29.367Z,1.15
2024-01-29T02:05:29.250Z,1.14
2024-01-29T02:06:29.322Z,1.14
2024-01-29T02:07:29.383Z,1.15
2024-01-29T02:08:29.241Z,1.17
2024-01-29T02:09:29.318Z,1.18
2024-01-29T02:10:29.250Z,1.17
2024-01-29T02:11:29.258Z,1.15
2024-01-29T02:12:29.275Z,1.17
2024-01-29T02:13:29.273Z,1.15
2024-01-29T02:14:29.298Z,1.15
2024-01-29T02:15:29.324Z,1.14
2024-01-29T02:16:29.279Z,1.14
2024-01-29T02:17:29.313Z,1.15
2024-01-29T02:18:29.356Z,1.14
2024-01-29T02:19:29.388Z,1.14
2024-01-29T02:20:29.306Z,1.12
2024-01-29T02:21:29.305Z,1.12
2024-01-29T02:22:29.312Z,1.11
2024-01-29T02:23:29.330Z,1.10
2024-01-29T02:24:29.352Z,1.11
2024-01-29T02:25:29.296Z,1.07
2024-01-29T02:26:29.305Z,1.04
2024-01-29T02:27:29.380Z,1.04
2024-01-29T02:28:29.393Z,1.00
2024-01-29T02:29:29.347Z,1.00
2024-01-29T02:30:29.348Z,1.02
2024-01-29T02:31:29.347Z,0.97
2024-01-29T02:32:29.357Z,0.96
2024-01-29T02:33:29.424Z,0.92
2024-01-29T02:34:29.569Z,0.86
2024-01-29T02:35:29.375Z,0.84
2024-01-29T02:36:29.369Z,0.82
2024-01-29T02:37:29.377Z,0.81
2024-01-29T02:38:29.369Z,0.79
2024-01-29T02:39:29.396Z,0.78
2024-01-29T02:40:29.375Z,0.74
2024-01-29T02:41:30.359Z,0.72
2024-01-29T02:42:29.430Z,0.70
2024-01-29T02:43:29.419Z,0.66
2024-01-29T02:44:29.438Z,0.64
2024-01-29T02:45:29.458Z,0.63
2024-01-29T02:46:29.444Z,0.60
2024-01-29T02:47:29.474Z,0.60
2024-01-29T02:48:29.548Z,0.63
2024-01-29T02:49:29.536Z,0.61
2024-01-29T02:50:29.480Z,0.57
2024-01-29T02:51:29.526Z,0.56
2024-01-29T02:52:29.498Z,0.51
2024-01-29T02:53:29.526Z,0.51
2024-01-29T02:54:29.591Z,0.48
2024-01-29T02:55:29.532Z,0.47
2024-01-29T02:56:29.558Z,0.45
2024-01-29T02:57:29.579Z,0.44
2024-01-29T02:58:29.575Z,0.45
2024-01-29T02:59:29.605Z,0.42
2024-01-29T03:00:29.602Z,0.41
2024-01-29T03:01:29.727Z,0.38
2024-01-29T03:02:29.628Z,0.38
2024-01-29T03:03:29.737Z,0.35
2024-01-29T03:04:29.866Z,0.37
2024-01-29T03:05:29.798Z,0.34
2024-01-29T03:06:29.735Z,0.34
2024-01-29T03:07:29.729Z,0.34
2024-01-29T03:08:29.746Z,0.34
2024-01-29T03:09:29.871Z,0.31
2024-01-29T03:10:29.806Z,0.34
2024-01-29T03:11:29.809Z,0.34
2024-01-29T03:12:29.854Z,0.34
2024-01-29T03:13:29.829Z,0.34
2024-01-29T03:14:29.880Z,0.31
2024-01-29T03:15:29.916Z,0.27
2024-01-29T03:16:29.872Z,0.30
2024-01-29T03:17:29.955Z,0.29
2024-01-29T03:18:29.993Z,0.29
2024-01-29T03:19:30.042Z,0.27
2024-01-29T03:20:29.931Z,0.27
2024-01-29T03:21:29.982Z,0.27
2024-01-29T03:22:29.977Z,0.27
2024-01-29T03:23:29.979Z,0.24
2024-01-29T03:24:30.046Z,0.26
2024-01-29T03:25:30.020Z,0.27
2024-01-29T03:26:30.039Z,0.27
2024-01-29T03:27:30.091Z,0.30
2024-01-29T03:28:30.078Z,0.30
2024-01-29T03:29:30.123Z,0.30
2024-01-29T03:30:30.126Z,0.34
2024-01-29T03:31:30.109Z,0.35
2024-01-29T03:32:30.148Z,0.35
2024-01-29T03:33:30.295Z,0.31
2024-01-29T03:34:30.283Z,0.31
2024-01-29T03:35:30.216Z,0.30
2024-01-29T03:36:30.248Z,0.31
2024-01-29T03:37:30.196Z,0.31
2024-01-29T03:38:30.252Z,0.29
2024-01-29T03:39:30.303Z,0.29
2024-01-29T03:40:30.312Z,0.27
2024-01-29T03:41:31.643Z,0.26
2024-01-29T03:42:30.325Z,0.29
2024-01-29T03:43:30.322Z,0.24
2024-01-29T03:44:30.377Z,0.24
2024-01-29T03:45:30.395Z,0.26
2024-01-29T03:46:30.373Z,0.23
2024-01-29T03:47:30.391Z,0.26
2024-01-29T03:48:30.542Z,0.24
2024-01-29T03:49:30.567Z,0.24
2024-01-29T03:50:30.484Z,0.26
2024-01-29T03:51:30.494Z,0.26
2024-01-29T03:52:30.489Z,0.29
2024-01-29T03:53:30.520Z,0.30
2024-01-29T03:54:30.616Z,0.30
2024-01-29T03:55:30.632Z,0.29
2024-01-29T03:56:30.557Z,0.31
2024-01-29T03:57:30.642Z,0.34
2024-01-29T03:58:30.601Z,0.31
2024-01-29T03:59:30.646Z,0.34
2024-01-29T04:00:30.641Z,0.34
2024-01-29T04:01:30.792Z,0.35
2024-01-29T04:02:30.685Z,0.31
2024-01-29T04:03:30.885Z,0.31
2024-01-29T04:04:30.925Z,0.31
2024-01-29T04:05:30.839Z,0.31
2024-01-29T04:06:30.840Z,0.30
2024-01-29T04:07:30.846Z,0.29
2024-01-29T04:08:30.795Z,0.30
2024-01-29T04:09:30.862Z,0.26
2024-01-29T04:10:30.856Z,0.29
2024-01-29T04:11:30.905Z,0.29
2024-01-29T04:12:30.898Z,0.30
2024-01-29T04:13:30.909Z,0.29
2024-01-29T04:14:30.954Z,0.26
2024-01-29T04:15:30.978Z,0.27
2024-01-29T04:16:30.946Z,0.24
2024-01-29T04:17:31.020Z,0.27
2024-01-29T04:18:31.125Z,0.24
2024-01-29T04:19:31.162Z,0.29
2024-01-29T04:20:31.005Z,0.31
2024-01-29T04:21:31.077Z,0.35
2024-01-29T04:22:31.056Z,0.37
2024-01-29T04:23:31.061Z,0.38
2024-01-29T04:24:31.123Z,0.38
2024-01-29T04:25:31.183Z,0.39
2024-01-29T04:26:31.106Z,0.41
2024-01-29T04:27:31.170Z,0.38
2024-01-29T04:28:31.160Z,0.42
2024-01-29T04:29:31.222Z,0.45
2024-01-29T04:30:31.213Z,0.44
2024-01-29T04:31:31.309Z,0.42
2024-01-29T04:32:31.324Z,0.42
2024-01-29T04:33:31.354Z,0.39
2024-01-29T04:34:31.700Z,0.39
2024-01-29T04:35:31.357Z,0.37
2024-01-29T04:36:31.420Z,0.37
2024-01-29T04:37:31.412Z,0.35
2024-01-29T04:38:31.434Z,0.35
2024-01-29T04:39:31.524Z,0.31
2024-01-29T04:40:31.480Z,0.30
2024-01-29T04:41:31.512Z,0.29
2024-01-29T04:42:31.604Z,0.26
2024-01-29T04:43:31.555Z,0.23
2024-01-29T04:44:31.612Z,0.24
2024-01-29T04:45:31.645Z,0.24
2024-01-29T04:46:31.632Z,0.26
2024-01-29T04:47:31.713Z,0.26
2024-01-29T04:48:31.750Z,0.29
2024-01-29T04:49:31.781Z,0.29
2024-01-29T04:50:31.761Z,0.29
2024-01-29T04:51:31.812Z,0.27
2024-01-29T04:52:31.777Z,0.27
2024-01-29T04:53:31.825Z,0.26
2024-01-29T04:54:31.909Z,0.24
2024-01-29T04:55:31.887Z,0.26
2024-01-29T04:56:31.892Z,0.27
2024-01-29T04:57:31.930Z,0.27
2024-01-29T04:58:31.918Z,0.27
2024-01-29T04:59:31.945Z,0.29
2024-01-29T05:00:32.138Z,0.27
2024-01-29T05:01:32.141Z,0.27
2024-01-29T05:02:32.007Z,0.27
2024-01-29T05:03:32.089Z,0.30
2024-01-29T05:04:32.269Z,0.31
2024-01-29T05:05:32.194Z,0.30
2024-01-29T05:06:32.159Z,0.30
2024-01-29T05:07:32.120Z,0.30
2024-01-29T05:08:32.129Z,0.30
2024-01-29T05:09:32.178Z,0.31
2024-01-29T05:10:32.184Z,0.29
2024-01-29T05:11:32.193Z,0.31
2024-01-29T05:12:32.279Z,0.29
2024-01-29T05:13:32.251Z,0.29
2024-01-29T05:14:32.260Z,0.30
2024-01-29T05:15:32.351Z,0.29
2024-01-29T05:16:32.320Z,0.29
2024-01-29T05:17:32.363Z,0.27
2024-01-29T05:18:32.373Z,0.26
2024-01-29T05:19:32.496Z,0.24
2024-01-29T05:20:32.444Z,0.26
2024-01-29T05:21:32.472Z,0.26
2024-01-29T05:22:32.462Z,0.23
2024-01-29T05:23:32.531Z,0.23
2024-01-29T05:24:32.579Z,0.23
2024-01-29T05:25:32.591Z,0.21
2024-01-29T05:26:32.587Z,0.21
2024-01-29T05:27:32.635Z,0.26
2024-01-29T05:28:32.632Z,0.23
2024-01-29T05:29:33.493Z,0.23
2024-01-29T05:30:32.809Z,0.21
2024-01-29T05:31:32.728Z,0.20
2024-01-29T05:32:32.808Z,0.23
2024-01-29T05:33:32.951Z,0.24
2024-01-29T05:34:32.798Z,0.24
2024-01-29T05:35:32.843Z,0.21
2024-01-29T05:36:32.814Z,0.23
2024-01-29T05:37:32.841Z,0.26
2024-01-29T05:38:32.850Z,0.27
2024-01-29T05:39:32.912Z,0.26
2024-01-29T05:40:32.945Z,0.26
2024-01-29T05:41:32.916Z,0.26
2024-01-29T05:42:32.960Z,0.24
2024-01-29T05:43:32.967Z,0.23
2024-01-29T05:44:32.992Z,0.21
2024-01-29T05:45:33.081Z,0.21
2024-01-29T05:46:33.048Z,0.21
2024-01-29T05:47:33.157Z,0.21
2024-01-29T05:48:33.331Z,0.20
2024-01-29T05:49:33.284Z,0.16
2024-01-29T05:50:33.178Z,0.16
2024-01-29T05:51:33.260Z,0.13
2024-01-29T05:52:33.214Z,0.17
2024-01-29T05:53:33.233Z,0.19
2024-01-29T05:54:33.262Z,0.16
2024-01-29T05:55:33.312Z,0.16
2024-01-29T05:56:33.276Z,0.16
2024-01-29T05:57:33.362Z,0.12
2024-01-29T05:58:33.324Z,0.13
2024-01-29T05:59:33.363Z,0.16
2024-01-29T06:00:33.537Z,0.16
2024-01-29T06:01:33.513Z,0.12
2024-01-29T06:02:33.464Z,0.11
2024-01-29T06:03:33.496Z,0.11
2024-01-29T06:04:33.513Z,0.11
2024-01-29T06:05:33.639Z,0.08
2024-01-29T06:06:33.612Z,0.09
2024-01-29T06:07:33.693Z,0.09
2024-01-29T06:08:33.545Z,0.06
2024-01-29T06:09:33.660Z,0.03
2024-01-29T06:10:33.690Z,0.05
2024-01-29T06:11:33.637Z,0.05
2024-01-29T06:12:33.649Z,0.03
2024-01-29T06:13:33.707Z,0.05
2024-01-29T06:14:33.692Z,-0.01
2024-01-29T06:15:33.774Z,0.02
2024-01-29T06:16:33.771Z,0.03
2024-01-29T06:17:33.773Z,0.03
2024-01-29T06:18:33.922Z,0.02
2024-01-29T06:19:38.957Z,0.02
2024-01-29T06:20:33.977Z,0.02
2024-01-29T06:21:33.895Z,0.01
2024-01-29T06:22:33.920Z,0.01
2024-01-29T06:23:33.911Z,-0.01
2024-01-29T06:24:33.980Z,0.03
2024-01-29T06:25:33.954Z,0.02
2024-01-29T06:26:33.940Z,0.02
2024-01-29T06:27:33.997Z,0.03
2024-01-29T06:28:33.989Z,0.08
2024-01-29T06:29:34.020Z,0.06
2024-01-29T06:30:34.103Z,0.03
2024-01-29T06:31:34.059Z,0.03
2024-01-29T06:32:34.299Z,0.02
2024-01-29T06:33:34.213Z,-0.01
2024-01-29T06:34:34.193Z,0.01
2024-01-29T06:35:34.223Z,0.05
2024-01-29T06:36:34.249Z,0.05
2024-01-29T06:37:34.232Z,0.02
2024-01-29T06:38:34.694Z,0.03
2024-01-29T06:39:34.296Z,-0.02
2024-01-29T06:40:34.341Z,-0.01
2024-01-29T06:41:34.341Z,0.02
2024-01-29T06:42:34.391Z,-0.01
2024-01-29T06:43:34.379Z,-0.01
2024-01-29T06:44:34.403Z,-0.02
2024-01-29T06:45:34.481Z,-0.02
2024-01-29T06:46:34.486Z,-0.07
2024-01-29T06:47:34.485Z,-0.04
2024-01-29T06:48:34.532Z,-0.07
2024-01-29T06:49:34.538Z,-0.07
2024-01-29T06:50:34.547Z,-0.06
2024-01-29T06:51:34.616Z,-0.07
2024-01-29T06:52:34.564Z,-0.07
2024-01-29T06:53:34.604Z,-0.02
2024-01-29T06:54:34.646Z,0.01
2024-01-29T06:55:34.679Z,0.02
2024-01-29T06:56:34.680Z,0.06
2024-01-29T06:57:34.707Z,0.08
2024-01-29T06:58:34.684Z,0.03
2024-01-29T06:59:34.712Z,0.05
2024-01-29T07:00:34.758Z,0.05
2024-01-29T07:01:34.889Z,0.03
2024-01-29T07:02:34.799Z,0.03
2024-01-29T07:03:34.967Z,0.02
2024-01-29T07:04:34.912Z,0.08
2024-01-29T07:05:34.894Z,0.06
2024-01-29T07:06:34.989Z,0.12
2024-01-29T07:07:34.921Z,0.17
2024-01-29T07:08:34.935Z,0.13
2024-01-29T07:09:35.007Z,0.19
2024-01-29T07:10:34.969Z,0.21
2024-01-29T07:11:35.020Z,0.24
2024-01-29T07:12:35.052Z,0.24
2024-01-29T07:13:35.050Z,0.29
2024-01-29T07:14:35.222Z,0.31
2024-01-29T07:15:35.128Z,0.34
2024-01-29T07:16:35.128Z,0.38
2024-01-29T07:17:35.193Z,0.37
2024-01-29T07:18:35.172Z,0.35
2024-01-29T07:19:35.296Z,0.38
2024-01-29T07:20:35.201Z,0.41
2024-01-29T07:21:35.230Z,0.42
2024-01-29T07:22:35.216Z,0.44
2024-01-29T07:23:35.227Z,0.48
2024-01-29T07:24:35.442Z,0.48
2024-01-29T07:25:35.270Z,0.49
2024-01-29T07:26:35.319Z,0.49
2024-01-29T07:27:35.334Z,0.53
2024-01-29T07:28:35.316Z,0.53
2024-01-29T07:29:35.382Z,0.53
2024-01-29T07:30:35.387Z,0.56
2024-01-29T07:31:35.392Z,0.58
2024-01-29T07:32:35.487Z,0.61
2024-01-29T07:33:35.547Z,0.64
2024-01-29T07:34:35.605Z,0.64
2024-01-29T07:35:35.415Z,0.66
2024-01-29T07:36:35.475Z,0.66
2024-01-29T07:37:35.469Z,0.70
2024-01-29T07:38:35.455Z,0.68
2024-01-29T07:39:35.529Z,0.68
2024-01-29T07:40:35.497Z,0.70
2024-01-29T07:41:36.910Z,0.72
2024-01-29T07:42:35.538Z,0.75
2024-01-29T07:43:35.631Z,0.76
2024-01-29T07:44:35.556Z,0.79
2024-01-29T07:45:35.588Z,0.81
2024-01-29T07:46:35.609Z,0.81
2024-01-29T07:47:35.660Z,0.82
2024-01-29T07:48:35.709Z,0.84
2024-01-29T07:49:35.775Z,0.84
2024-01-29T07:50:35.656Z,0.82
2024-01-29T07:51:35.715Z,0.85
2024-01-29T07:52:35.705Z,0.85
2024-01-29T07:53:35.723Z,0.86
2024-01-29T07:54:35.797Z,0.86
2024-01-29T07:55:35.727Z,0.86
2024-01-29T07:56:35.759Z,0.88
2024-01-29T07:57:35.787Z,0.93
2024-01-29T07:58:36.373Z,0.92
2024-01-29T07:59:35.795Z,0.93
2024-01-29T08:00:35.837Z,0.96
2024-01-29T08:01:35.938Z,0.94
2024-01-29T08:02:35.827Z,0.96
2024-01-29T08:03:35.921Z,0.97
2024-01-29T08:04:35.898Z,0.99
2024-01-29T08:05:35.867Z,1.02
2024-01-29T08:06:35.969Z,1.02
2024-01-29T08:07:35.875Z,1.02
2024-01-29T08:08:35.878Z,1.04
2024-01-29T08:09:35.983Z,1.07
2024-01-29T08:10:35.913Z,1.10
2024-01-29T08:11:35.982Z,1.11
2024-01-29T08:12:36.043Z,1.14
2024-01-29T08:13:35.956Z,1.15
2024-01-29T08:14:35.955Z,1.17
2024-01-29T08:15:35.975Z,1.18
2024-01-29T08:16:35.995Z,1.20
2024-01-29T08:17:36.096Z,1.24
2024-01-29T08:18:36.173Z,1.25
2024-01-29T08:19:36.189Z,1.28
2024-01-29T08:20:36.153Z,1.31
2024-01-29T08:21:36.092Z,1.32
2024-01-29T08:22:36.027Z,1.38
2024-01-29T08:23:36.028Z,1.40
2024-01-29T08:24:36.062Z,1.42
2024-01-29T08:25:36.044Z,1.45
2024-01-29T08:26:36.040Z,1.45
2024-01-29T08:27:36.076Z,1.51
2024-01-29T08:28:36.033Z,1.51
2024-01-29T08:29:36.044Z,1.54
2024-01-29T08:30:36.081Z,1.58
2024-01-29T08:31:36.091Z,1.61
2024-01-29T08:32:36.113Z,1.63
2024-01-29T08:33:36.118Z,1.68
2024-01-29T08:34:36.231Z,1.68
2024-01-29T08:35:36.099Z,1.72
2024-01-29T08:36:36.099Z,1.74
2024-01-29T08:37:36.085Z,1.76
2024-01-29T08:38:36.064Z,1.85
2024-01-29T08:39:36.130Z,1.82
2024-01-29T08:40:36.058Z,1.87
2024-01-29T08:41:36.108Z,1.90
2024-01-29T08:42:36.093Z,1.94
2024-01-29T08:43:36.071Z,1.98
2024-01-29T08:44:36.039Z,2.01
2024-01-29T08:45:36.074Z,2.08
2024-01-29T08:46:36.064Z,2.11
2024-01-29T08:47:36.065Z,2.12
2024-01-29T08:48:36.057Z,2.15
2024-01-29T08:49:36.079Z,2.23
2024-01-29T08:50:35.995Z,2.26
2024-01-29T08:51:36.038Z,2.29
2024-01-29T08:52:35.979Z,2.34
2024-01-29T08:53:35.961Z,2.37
2024-01-29T08:54:35.980Z,2.44
2024-01-29T08:55:35.934Z,2.51
2024-01-29T08:56:35.940Z,2.55
2024-01-29T08:57:35.941Z,2.62
2024-01-29T08:58:35.916Z,2.67
2024-01-29T08:59:35.888Z,2.73
2024-01-29T09:00:35.942Z,2.83
2024-01-29T09:01:35.971Z,2.88
2024-01-29T09:02:35.846Z,2.94
2024-01-29T09:03:37.352Z,2.99
2024-01-29T09:04:35.989Z,3.03
2024-01-29T09:05:35.837Z,3.08
2024-01-29T09:06:35.823Z,3.12
2024-01-29T09:07:35.758Z,3.19
2024-01-29T09:08:35.737Z,3.24
2024-01-29T09:09:35.800Z,3.26
2024-01-29T09:10:35.698Z,3.29
2024-01-29T09:11:35.699Z,3.31
2024-01-29T09:12:35.685Z,3.35
2024-01-29T09:13:35.638Z,3.39
2024-01-29T09:14:35.601Z,3.43
2024-01-29T09:15:35.675Z,3.49
2024-01-29T09:16:35.591Z,3.49
2024-01-29T09:17:35.608Z,3.56
2024-01-29T09:18:35.546Z,3.57
2024-01-29T09:19:35.616Z,3.61
2024-01-29T09:20:35.471Z,3.64
2024-01-29T09:21:35.576Z,3.67
2024-01-29T09:22:35.398Z,3.72
2024-01-29T09:23:35.382Z,3.74
2024-01-29T09:24:35.378Z,3.81
2024-01-29T09:25:35.322Z,3.86
2024-01-29T09:26:35.323Z,3.86
2024-01-29T09:27:35.300Z,3.88
2024-01-29T09:28:35.198Z,3.93
2024-01-29T09:29:35.177Z,3.96
2024-01-29T09:30:35.169Z,3.97
2024-01-29T09:31:35.216Z,4.00
2024-01-29T09:32:35.089Z,4.03
2024-01-29T09:33:35.188Z,4.10
2024-01-29T09:34:35.057Z,4.12
2024-01-29T09:35:34.979Z,4.14
2024-01-29T09:36:34.942Z,4.18
2024-01-29T09:37:34.881Z,4.24
2024-01-29T09:38:34.856Z,4.25
2024-01-29T09:39:34.810Z,4.30
2024-01-29T09:40:34.724Z,4.33
2024-01-29T09:41:34.709Z,4.36
2024-01-29T09:42:34.956Z,4.40
2024-01-29T09:43:34.609Z,4.43
2024-01-29T09:44:34.569Z,4.48
2024-01-29T09:45:34.575Z,4.51
2024-01-29T09:46:34.476Z,4.55
2024-01-29T09:47:34.587Z,4.58
2024-01-29T09:48:34.642Z,4.58
2024-01-29T09:49:34.429Z,4.66
2024-01-29T09:50:34.304Z,4.68
2024-01-29T09:51:34.318Z,4.69
2024-01-29T09:52:34.212Z,4.72
2024-01-29T09:53:34.154Z,4.75
2024-01-29T09:54:34.109Z,4.78
2024-01-29T09:55:34.119Z,4.83
2024-01-29T09:56:34.014Z,4.83
2024-01-29T09:57:34.020Z,4.90
2024-01-29T09:58:33.916Z,4.91
2024-01-29T09:59:33.878Z,4.92
2024-01-29T10:00:34.631Z,4.95
2024-01-29T10:01:33.840Z,4.97
2024-01-29T10:02:33.794Z,5.00
2024-01-29T10:03:33.713Z,4.98
2024-01-29T10:04:33.602Z,5.00
2024-01-29T10:05:33.599Z,5.03
2024-01-29T10:06:34.099Z,5.06
2024-01-29T10:07:33.588Z,5.12
2024-01-29T10:08:33.371Z,5.12
2024-01-29T10:09:33.319Z,5.12
2024-01-29T10:10:33.277Z,5.20
2024-01-29T10:11:33.199Z,5.24
2024-01-29T10:12:33.303Z,5.28
2024-01-29T10:13:33.078Z,5.33
2024-01-29T10:14:33.006Z,5.35
2024-01-29T10:15:33.032Z,5.41
2024-01-29T10:16:32.895Z,5.43
2024-01-29T10:17:32.855Z,5.48
2024-01-29T10:18:32.999Z,5.51
2024-01-29T10:19:32.776Z,5.53
2024-01-29T10:20:32.665Z,5.61
2024-01-29T10:21:32.594Z,5.63
2024-01-29T10:22:32.543Z,5.67
2024-01-29T10:23:32.432Z,5.70
2024-01-29T10:24:32.737Z,5.76
2024-01-29T10:25:32.361Z,5.79
2024-01-29T10:26:32.260Z,5.82
2024-01-29T10:27:32.204Z,5.87
2024-01-29T10:28:32.110Z,5.87
2024-01-29T10:29:32.025Z,5.87
2024-01-29T10:30:32.339Z,5.88
2024-01-29T10:31:32.005Z,5.89
2024-01-29T10:32:31.842Z,5.89
2024-01-29T10:33:31.999Z,5.94
2024-01-29T10:34:31.748Z,5.92
2024-01-29T10:35:31.790Z,5.95
2024-01-29T10:36:33.174Z,5.97
2024-01-29T10:37:32.387Z,5.99
2024-01-29T10:38:31.389Z,6.00
2024-01-29T10:39:31.336Z,6.05
2024-01-29T10:40:31.287Z,6.06
2024-01-29T10:41:31.165Z,6.07
2024-01-29T10:42:33.138Z,6.12
2024-01-29T10:43:31.035Z,6.12
2024-01-29T10:44:30.964Z,6.17
2024-01-29T10:45:30.956Z,6.18
2024-01-29T10:46:30.850Z,6.21
2024-01-29T10:47:30.778Z,6.21
2024-01-29T10:48:30.879Z,6.22
2024-01-29T10:49:30.683Z,6.29
2024-01-29T10:50:30.515Z,6.28
2024-01-29T10:51:30.469Z,6.29
2024-01-29T10:52:30.380Z,6.33
2024-01-29T10:53:30.293Z,6.32
2024-01-29T10:54:30.218Z,6.32
2024-01-29T10:55:30.117Z,6.33
2024-01-29T10:56:30.044Z,6.32
2024-01-29T10:57:29.986Z,6.37
2024-01-29T10:58:29.869Z,6.37
2024-01-29T10:59:29.809Z,6.41
2024-01-29T11:00:29.740Z,6.44
2024-01-29T11:01:29.708Z,6.44
2024-01-29T11:02:29.733Z,6.49
2024-01-29T11:03:29.505Z,6.54
2024-01-29T11:04:29.429Z,6.55
2024-01-29T11:05:29.348Z,6.57
2024-01-29T11:06:29.273Z,6.55
2024-01-29T11:07:29.213Z,6.57
2024-01-29T11:08:29.120Z,6.57
2024-01-29T11:09:29.038Z,6.55
2024-01-29T11:10:28.928Z,6.54
2024-01-29T11:11:28.912Z,6.51
2024-01-29T11:12:28.815Z,6.50
2024-01-29T11:13:28.720Z,6.51
2024-01-29T11:14:28.599Z,6.55
2024-01-29T11:15:28.526Z,6.55
2024-01-29T11:16:28.673Z,6.58
2024-01-29T11:17:28.481Z,6.61
2024-01-29T11:18:28.422Z,6.61
2024-01-29T11:19:28.417Z,6.64
2024-01-29T11:20:28.104Z,6.65
2024-01-29T11:21:28.054Z,6.68
2024-01-29T11:22:27.951Z,6.73
2024-01-29T11:23:31.046Z,6.75
2024-01-29T11:24:27.754Z,6.76
2024-01-29T11:25:27.659Z,6.80
2024-01-29T11:26:27.583Z,6.84
2024-01-29T11:27:27.514Z,6.89
2024-01-29T11:28:27.482Z,6.92
2024-01-29T11:29:27.300Z,6.97
2024-01-29T11:30:27.229Z,7.00
2024-01-29T11:31:27.148Z,7.02
2024-01-29T11:32:27.037Z,7.05
2024-01-29T11:33:27.197Z,7.09
2024-01-29T11:34:27.020Z,7.13
2024-01-29T11:35:32.267Z,7.12
2024-01-29T11:36:26.707Z,7.16
2024-01-29T11:37:26.696Z,7.18
2024-01-29T11:38:26.594Z,7.20
2024-01-29T11:39:26.482Z,7.25
2024-01-29T11:40:26.339Z,7.25
2024-01-29T11:41:26.244Z,7.33
2024-01-29T11:42:26.146Z,7.34
2024-01-29T11:43:26.081Z,7.40
2024-01-29T11:44:25.978Z,7.41
2024-01-29T11:45:25.895Z,7.44
2024-01-29T11:46:25.831Z,7.46
2024-01-29T11:47:25.755Z,7.49
2024-01-29T11:48:25.746Z,7.51
2024-01-29T11:49:25.643Z,7.52
2024-01-29T11:50:25.482Z,7.55
2024-01-29T11:51:25.346Z,7.56
2024-01-29T11:52:25.272Z,7.59
2024-01-29T11:53:25.188Z,7.62
2024-01-29T11:54:25.071Z,7.67
2024-01-29T11:55:25.002Z,7.71
2024-01-29T11:56:24.849Z,7.75
2024-01-29T11:57:24.751Z,7.77
2024-01-29T11:58:24.828Z,7.80
2024-01-29T11:59:24.574Z,7.85
2024-01-29T12:00:24.465Z,7.86
2024-01-29T12:01:24.417Z,7.89
2024-01-29T12:02:24.306Z,7.92
2024-01-29T12:03:24.280Z,7.96
2024-01-29T12:04:24.190Z,7.97
2024-01-29T12:05:23.984Z,8.02
2024-01-29T12:06:23.861Z,8.07
2024-01-29T12:07:23.885Z,8.10
2024-01-29T12:08:23.716Z,8.11
2024-01-29T12:09:23.543Z,8.14
2024-01-29T12:10:23.468Z,8.15
2024-01-29T12:11:23.352Z,8.18
2024-01-29T12:12:24.161Z,8.20
2024-01-29T12:13:23.211Z,8.23
2024-01-29T12:14:23.044Z,8.23
2024-01-29T12:15:22.941Z,8.28
2024-01-29T12:16:22.861Z,8.29
2024-01-29T12:17:22.725Z,8.31
2024-01-29T12:18:23.067Z,8.32
2024-01-29T12:19:22.620Z,8.32
2024-01-29T12:20:22.430Z,8.33
2024-01-29T12:21:22.514Z,8.35
2024-01-29T12:22:22.251Z,8.36
2024-01-29T12:23:22.126Z,8.38
2024-01-29T12:24:21.984Z,8.36
2024-01-29T12:25:21.983Z,8.39
2024-01-29T12:26:21.763Z,8.41
2024-01-29T12:27:21.696Z,8.41
2024-01-29T12:28:21.634Z,8.44
2024-01-29T12:29:21.465Z,8.43
2024-01-29T12:30:21.378Z,8.46
2024-01-29T12:31:21.382Z,8.47
2024-01-29T12:32:21.137Z,8.50
2024-01-29T12:33:21.174Z,8.50
2024-01-29T12:34:21.039Z,8.50
2024-01-29T12:35:20.828Z,8.50
2024-01-29T12:36:20.685Z,8.53
2024-01-29T12:37:20.638Z,8.53
2024-01-29T12:38:20.505Z,8.56
2024-01-29T12:39:20.353Z,8.56
2024-01-29T12:40:20.274Z,8.56
2024-01-29T12:41:20.138Z,8.56
2024-01-29T12:42:20.017Z,8.53
2024-01-29T12:43:19.952Z,8.51
2024-01-29T12:44:19.791Z,8.53
2024-01-29T12:45:19.696Z,8.54
2024-01-29T12:46:19.668Z,8.54
2024-01-29T12:47:19.456Z,8.54
2024-01-29T12:48:19.488Z,8.56
2024-01-29T12:49:19.433Z,8.59
2024-01-29T12:50:19.190Z,8.59
2024-01-29T12:51:18.996Z,8.59
2024-01-29T12:52:18.914Z,8.61
2024-01-29T12:53:18.758Z,8.64
2024-01-29T12:54:18.736Z,8.62
2024-01-29T12:55:18.666Z,8.61
2024-01-29T12:56:18.375Z,8.61
2024-01-29T12:57:18.323Z,8.61
2024-01-29T12:58:18.181Z,8.61
2024-01-29T12:59:18.025Z,8.59
2024-01-29T13:00:17.905Z,8.61
2024-01-29T13:01:17.868Z,8.59
2024-01-29T13:02:17.669Z,8.57
2024-01-29T13:03:17.572Z,8.54
2024-01-29T13:04:17.589Z,8.57
2024-01-29T13:05:17.427Z,8.53
2024-01-29T13:06:17.184Z,8.54
2024-01-29T13:07:17.082Z,8.54
2024-01-29T13:08:16.942Z,8.56
2024-01-29T13:09:16.808Z,8.57
2024-01-29T13:10:16.805Z,8.57
2024-01-29T13:11:16.587Z,8.59
2024-01-29T13:12:16.447Z,8.56
2024-01-29T13:13:16.503Z,8.57
2024-01-29T13:14:16.228Z,8.61
2024-01-29T13:15:16.096Z,8.57
2024-01-29T13:16:15.996Z,8.59
2024-01-29T13:17:15.855Z,8.61
2024-01-29T13:18:15.796Z,8.57
2024-01-29T13:19:15.657Z,8.59